sensor_id;sensor_type;location;lat;lon;timestamp;P1;durP1;ratioP1;P2;durP2;ratioP2
66721;SDS011;53633;49.932;10.884;2024-03-23T00:53:44;11.15;;;5.18;;
66721;SDS011;53633;49.932;10.884;2024-03-23T00:56:10;12.05;;;5.38;;
66721;SDS011;53633;49.932;10.884;2024-03-23T00:58:36;10.50;;;5.10;;
66721;SDS011;53633;49.932;10.884;2024-03-23T01:01:02;10.82;;;5.22;;
66721;SDS011;53633;49.932;10.884;2024-03-23T01:03:28;10.80;;;5.57;;
66721;SDS011;53633;49.932;10.884;2024-03-23T01:05:54;11.07;;;5.43;;
66721;SDS011;53633;49.932;10.884;2024-03-23T01:08:24;12.60;;;6.28;;
66721;SDS011;53633;49.932;10.884;2024-03-23T01:10:55;11.70;;;6.18;;
66721;SDS011;53633;49.932;10.884;2024-03-23T01:13:21;12.30;;;6.60;;
66721;SDS011;53633;49.932;10.884;2024-03-23T01:15:47;12.27;;;5.90;;
66721;SDS011;53633;49.932;10.884;2024-03-23T01:18:14;12.25;;;5.60;;
66721;SDS011;53633;49.932;10.884;2024-03-23T01:20:40;11.05;;;5.57;;
66721;SDS011;53633;49.932;10.884;2024-03-23T01:23:05;11.82;;;5.90;;
66721;SDS011;53633;49.932;10.884;2024-03-23T01:25:31;11.27;;;5.97;;
66721;SDS011;53633;49.932;10.884;2024-03-23T01:27:59;11.50;;;5.93;;
66721;SDS011;53633;49.932;10.884;2024-03-23T01:30:24;12.63;;;6.13;;
66721;SDS011;53633;49.932;10.884;2024-03-23T01:32:50;12.82;;;5.75;;
66721;SDS011;53633;49.932;10.884;2024-03-23T01:35:16;13.07;;;5.77;;
66721;SDS011;53633;49.932;10.884;2024-03-23T01:37:42;12.43;;;6.00;;
66721;SDS011;53633;49.932;10.884;2024-03-23T01:40:08;10.93;;;5.70;;
66721;SDS011;53633;49.932;10.884;2024-03-23T01:42:34;11.90;;;5.47;;
66721;SDS011;53633;49.932;10.884;2024-03-23T01:45:02;14.45;;;6.55;;
66721;SDS011;53633;49.932;10.884;2024-03-23T01:47:33;12.82;;;6.25;;
66721;SDS011;53633;49.932;10.884;2024-03-23T01:49:59;14.77;;;6.15;;
66721;SDS011;53633;49.932;10.884;2024-03-23T01:52:25;13.00;;;5.77;;
66721;SDS011;53633;49.932;10.884;2024-03-23T01:54:51;15.60;;;6.90;;
66721;SDS011;53633;49.932;10.884;2024-03-23T01:57:17;11.57;;;5.95;;
66721;SDS011;53633;49.932;10.884;2024-03-23T01:59:43;13.88;;;5.97;;
66721;SDS011;53633;49.932;10.884;2024-03-23T02:02:10;12.38;;;5.88;;
66721;SDS011;53633;49.932;10.884;2024-03-23T02:04:36;13.30;;;5.68;;
66721;SDS011;53633;49.932;10.884;2024-03-23T02:07:01;13.82;;;6.20;;
66721;SDS011;53633;49.932;10.884;2024-03-23T02:09:27;12.10;;;6.05;;
66721;SDS011;53633;49.932;10.884;2024-03-23T02:11:54;13.10;;;5.70;;
66721;SDS011;53633;49.932;10.884;2024-03-23T02:14:20;12.70;;;5.82;;
66721;SDS011;53633;49.932;10.884;2024-03-23T02:16:46;15.43;;;5.90;;
66721;SDS011;53633;49.932;10.884;2024-03-23T02:19:13;15.30;;;6.23;;
66721;SDS011;53633;49.932;10.884;2024-03-23T02:21:39;11.73;;;5.70;;
66721;SDS011;53633;49.932;10.884;2024-03-23T02:24:06;14.57;;;6.28;;
66721;SDS011;53633;49.932;10.884;2024-03-23T02:26:32;13.60;;;6.18;;
66721;SDS011;53633;49.932;10.884;2024-03-23T02:28:58;11.67;;;5.97;;
66721;SDS011;53633;49.932;10.884;2024-03-23T02:31:24;11.82;;;5.88;;
66721;SDS011;53633;49.932;10.884;2024-03-23T02:33:50;12.23;;;6.45;;
66721;SDS011;53633;49.932;10.884;2024-03-23T02:36:16;15.00;;;6.22;;
66721;SDS011;53633;49.932;10.884;2024-03-23T02:38:42;16.92;;;6.65;;
66721;SDS011;53633;49.932;10.884;2024-03-23T02:41:09;12.25;;;6.22;;
66721;SDS011;53633;49.932;10.884;2024-03-23T02:43:36;13.90;;;6.60;;
66721;SDS011;53633;49.932;10.884;2024-03-23T02:46:02;13.15;;;6.47;;
66721;SDS011;53633;49.932;10.884;2024-03-23T02:48:28;13.75;;;6.60;;
66721;SDS011;53633;49.932;10.884;2024-03-23T02:50:54;13.68;;;6.47;;
66721;SDS011;53633;49.932;10.884;2024-03-23T02:53:21;13.37;;;6.37;;
66721;SDS011;53633;49.932;10.884;2024-03-23T02:55:47;13.32;;;6.13;;
66721;SDS011;53633;49.932;10.884;2024-03-23T02:58:14;13.77;;;6.68;;
66721;SDS011;53633;49.932;10.884;2024-03-23T03:00:40;14.50;;;5.63;;
66721;SDS011;53633;49.932;10.884;2024-03-23T03:03:06;13.70;;;5.90;;
66721;SDS011;53633;49.932;10.884;2024-03-23T03:05:32;12.52;;;6.47;;
66721;SDS011;53633;49.932;10.884;2024-03-23T03:07:58;14.23;;;6.45;;
66721;SDS011;53633;49.932;10.884;2024-03-23T03:10:24;13.00;;;6.10;;
66721;SDS011;53633;49.932;10.884;2024-03-23T03:12:50;12.97;;;6.00;;
66721;SDS011;53633;49.932;10.884;2024-03-23T03:15:17;14.48;;;7.30;;
66721;SDS011;53633;49.932;10.884;2024-03-23T03:17:43;11.60;;;6.20;;
66721;SDS011;53633;49.932;10.884;2024-03-23T03:20:10;15.02;;;6.88;;
66721;SDS011;53633;49.932;10.884;2024-03-23T03:22:36;14.07;;;6.60;;
66721;SDS011;53633;49.932;10.884;2024-03-23T03:25:02;12.52;;;6.72;;
66721;SDS011;53633;49.932;10.884;2024-03-23T03:27:28;14.30;;;6.30;;
66721;SDS011;53633;49.932;10.884;2024-03-23T03:29:53;15.60;;;6.93;;
66721;SDS011;53633;49.932;10.884;2024-03-23T03:32:23;14.90;;;6.97;;
66721;SDS011;53633;49.932;10.884;2024-03-23T03:34:49;13.82;;;6.28;;
66721;SDS011;53633;49.932;10.884;2024-03-23T03:37:15;14.52;;;6.55;;
66721;SDS011;53633;49.932;10.884;2024-03-23T03:39:41;16.75;;;7.40;;
66721;SDS011;53633;49.932;10.884;2024-03-23T03:42:07;12.38;;;6.10;;
66721;SDS011;53633;49.932;10.884;2024-03-23T03:44:32;12.90;;;6.88;;
66721;SDS011;53633;49.932;10.884;2024-03-23T03:46:58;12.68;;;6.88;;
66721;SDS011;53633;49.932;10.884;2024-03-23T03:49:26;16.60;;;6.37;;
66721;SDS011;53633;49.932;10.884;2024-03-23T03:51:51;14.23;;;6.32;;
66721;SDS011;53633;49.932;10.884;2024-03-23T03:54:17;14.45;;;6.90;;
66721;SDS011;53633;49.932;10.884;2024-03-23T03:56:43;14.17;;;6.57;;
66721;SDS011;53633;49.932;10.884;2024-03-23T03:59:09;12.38;;;6.75;;
66721;SDS011;53633;49.932;10.884;2024-03-23T04:01:34;12.93;;;6.37;;
66721;SDS011;53633;49.932;10.884;2024-03-23T04:04:00;17.08;;;6.80;;
66721;SDS011;53633;49.932;10.884;2024-03-23T04:06:28;13.35;;;6.90;;
66721;SDS011;53633;49.932;10.884;2024-03-23T04:08:54;16.80;;;7.78;;
66721;SDS011;53633;49.932;10.884;2024-03-23T04:11:19;13.32;;;7.10;;
66721;SDS011;53633;49.932;10.884;2024-03-23T04:13:45;13.48;;;7.18;;
66721;SDS011;53633;49.932;10.884;2024-03-23T04:16:11;15.03;;;7.57;;
66721;SDS011;53633;49.932;10.884;2024-03-23T04:18:38;14.43;;;7.40;;
66721;SDS011;53633;49.932;10.884;2024-03-23T04:21:04;15.35;;;7.50;;
66721;SDS011;53633;49.932;10.884;2024-03-23T04:23:31;14.70;;;7.57;;
66721;SDS011;53633;49.932;10.884;2024-03-23T04:26:02;15.18;;;7.82;;
66721;SDS011;53633;49.932;10.884;2024-03-23T04:28:28;15.18;;;6.60;;
66721;SDS011;53633;49.932;10.884;2024-03-23T04:30:54;12.30;;;6.85;;
66721;SDS011;53633;49.932;10.884;2024-03-23T04:33:20;14.40;;;7.20;;
66721;SDS011;53633;49.932;10.884;2024-03-23T04:35:48;15.88;;;7.60;;
66721;SDS011;53633;49.932;10.884;2024-03-23T04:38:14;16.45;;;7.20;;
66721;SDS011;53633;49.932;10.884;2024-03-23T04:40:41;14.52;;;6.90;;
66721;SDS011;53633;49.932;10.884;2024-03-23T04:43:07;14.98;;;7.32;;
66721;SDS011;53633;49.932;10.884;2024-03-23T04:45:33;16.25;;;7.15;;
66721;SDS011;53633;49.932;10.884;2024-03-23T04:47:59;14.75;;;6.75;;
66721;SDS011;53633;49.932;10.884;2024-03-23T04:50:24;14.15;;;7.18;;
66721;SDS011;53633;49.932;10.884;2024-03-23T04:52:50;16.77;;;7.07;;
66721;SDS011;53633;49.932;10.884;2024-03-23T04:55:16;15.70;;;7.20;;
66721;SDS011;53633;49.932;10.884;2024-03-23T04:57:43;14.23;;;7.43;;
66721;SDS011;53633;49.932;10.884;2024-03-23T05:00:10;14.05;;;6.82;;
66721;SDS011;53633;49.932;10.884;2024-03-23T05:02:36;15.30;;;7.00;;
66721;SDS011;53633;49.932;10.884;2024-03-23T05:05:02;16.37;;;7.37;;
66721;SDS011;53633;49.932;10.884;2024-03-23T05:07:28;14.85;;;6.93;;
66721;SDS011;53633;49.932;10.884;2024-03-23T05:09:54;14.90;;;7.72;;
66721;SDS011;53633;49.932;10.884;2024-03-23T05:12:20;14.70;;;7.15;;
66721;SDS011;53633;49.932;10.884;2024-03-23T05:14:47;15.40;;;7.80;;
66721;SDS011;53633;49.932;10.884;2024-03-23T05:17:13;14.05;;;6.78;;
66721;SDS011;53633;49.932;10.884;2024-03-23T05:19:41;19.40;;;8.40;;
66721;SDS011;53633;49.932;10.884;2024-03-23T05:22:07;15.98;;;7.25;;
66721;SDS011;53633;49.932;10.884;2024-03-23T05:24:33;13.15;;;6.75;;
66721;SDS011;53633;49.932;10.884;2024-03-23T05:26:59;14.60;;;6.97;;
66721;SDS011;53633;49.932;10.884;2024-03-23T05:29:25;12.63;;;5.97;;
66721;SDS011;53633;49.932;10.884;2024-03-23T05:31:52;17.38;;;7.85;;
66721;SDS011;53633;49.932;10.884;2024-03-23T05:34:18;13.80;;;6.97;;
66721;SDS011;53633;49.932;10.884;2024-03-23T05:36:44;12.85;;;6.35;;
66721;SDS011;53633;49.932;10.884;2024-03-23T05:39:11;14.23;;;6.75;;
66721;SDS011;53633;49.932;10.884;2024-03-23T05:41:37;13.55;;;6.72;;
66721;SDS011;53633;49.932;10.884;2024-03-23T05:44:03;17.70;;;7.10;;
66721;SDS011;53633;49.932;10.884;2024-03-23T05:46:29;16.27;;;7.20;;
66721;SDS011;53633;49.932;10.884;2024-03-23T05:48:57;14.95;;;7.15;;
66721;SDS011;53633;49.932;10.884;2024-03-23T05:51:27;13.52;;;6.93;;
66721;SDS011;53633;49.932;10.884;2024-03-23T05:53:53;16.38;;;7.40;;
66721;SDS011;53633;49.932;10.884;2024-03-23T05:56:19;14.85;;;7.80;;
66721;SDS011;53633;49.932;10.884;2024-03-23T05:58:45;14.60;;;6.78;;
66721;SDS011;53633;49.932;10.884;2024-03-23T06:01:11;12.05;;;6.03;;
66721;SDS011;53633;49.932;10.884;2024-03-23T06:03:37;14.18;;;7.32;;
66721;SDS011;53633;49.932;10.884;2024-03-23T06:06:05;14.55;;;6.93;;
66721;SDS011;53633;49.932;10.884;2024-03-23T06:08:30;13.65;;;6.80;;
66721;SDS011;53633;49.932;10.884;2024-03-23T06:10:56;13.77;;;6.38;;
66721;SDS011;53633;49.932;10.884;2024-03-23T06:13:22;13.35;;;6.57;;
66721;SDS011;53633;49.932;10.884;2024-03-23T06:15:48;14.30;;;7.10;;
66721;SDS011;53633;49.932;10.884;2024-03-23T06:18:14;13.88;;;6.97;;
66721;SDS011;53633;49.932;10.884;2024-03-23T06:20:40;13.17;;;6.43;;
66721;SDS011;53633;49.932;10.884;2024-03-23T06:23:07;14.20;;;6.65;;
66721;SDS011;53633;49.932;10.884;2024-03-23T06:25:33;14.35;;;7.10;;
66721;SDS011;53633;49.932;10.884;2024-03-23T06:27:59;11.73;;;6.72;;
66721;SDS011;53633;49.932;10.884;2024-03-23T06:30:25;15.30;;;6.75;;
66721;SDS011;53633;49.932;10.884;2024-03-23T06:32:53;12.02;;;7.00;;
66721;SDS011;53633;49.932;10.884;2024-03-23T06:35:20;15.23;;;6.80;;
66721;SDS011;53633;49.932;10.884;2024-03-23T06:37:48;14.52;;;6.80;;
66721;SDS011;53633;49.932;10.884;2024-03-23T06:40:15;13.43;;;6.90;;
66721;SDS011;53633;49.932;10.884;2024-03-23T06:42:41;13.30;;;6.70;;
66721;SDS011;53633;49.932;10.884;2024-03-23T06:45:07;12.55;;;7.00;;
66721;SDS011;53633;49.932;10.884;2024-03-23T06:47:35;12.35;;;6.45;;
66721;SDS011;53633;49.932;10.884;2024-03-23T06:50:02;11.70;;;6.63;;
66721;SDS011;53633;49.932;10.884;2024-03-23T06:52:28;12.43;;;6.53;;
66721;SDS011;53633;49.932;10.884;2024-03-23T06:54:55;11.17;;;6.03;;
66721;SDS011;53633;49.932;10.884;2024-03-23T06:57:22;12.95;;;6.70;;
66721;SDS011;53633;49.932;10.884;2024-03-23T06:59:50;13.55;;;6.50;;
66721;SDS011;53633;49.932;10.884;2024-03-23T07:02:16;14.57;;;5.57;;
66721;SDS011;53633;49.932;10.884;2024-03-23T07:04:43;14.83;;;6.23;;
66721;SDS011;53633;49.932;10.884;2024-03-23T07:07:09;12.63;;;5.78;;
66721;SDS011;53633;49.932;10.884;2024-03-23T07:09:34;13.63;;;6.05;;
66721;SDS011;53633;49.932;10.884;2024-03-23T07:12:00;13.63;;;5.50;;
66721;SDS011;53633;49.932;10.884;2024-03-23T07:14:28;12.45;;;5.25;;
66721;SDS011;53633;49.932;10.884;2024-03-23T07:16:53;10.98;;;4.95;;
66721;SDS011;53633;49.932;10.884;2024-03-23T07:19:19;12.77;;;4.90;;
66721;SDS011;53633;49.932;10.884;2024-03-23T07:21:46;12.95;;;5.05;;
66721;SDS011;53633;49.932;10.884;2024-03-23T07:24:12;10.90;;;4.72;;
66721;SDS011;53633;49.932;10.884;2024-03-23T07:26:38;11.20;;;4.17;;
66721;SDS011;53633;49.932;10.884;2024-03-23T07:29:05;8.85;;;3.60;;
66721;SDS011;53633;49.932;10.884;2024-03-23T07:31:37;9.82;;;4.30;;
66721;SDS011;53633;49.932;10.884;2024-03-23T07:34:02;9.23;;;3.58;;
66721;SDS011;53633;49.932;10.884;2024-03-23T07:36:28;8.30;;;3.30;;
66721;SDS011;53633;49.932;10.884;2024-03-23T07:38:54;7.63;;;2.80;;
66721;SDS011;53633;49.932;10.884;2024-03-23T07:41:20;6.97;;;2.95;;
66721;SDS011;53633;49.932;10.884;2024-03-23T07:43:47;9.45;;;3.03;;
66721;SDS011;53633;49.932;10.884;2024-03-23T07:46:14;8.07;;;3.38;;
66721;SDS011;53633;49.932;10.884;2024-03-23T07:48:42;9.05;;;3.17;;
66721;SDS011;53633;49.932;10.884;2024-03-23T07:51:08;8.27;;;2.88;;
66721;SDS011;53633;49.932;10.884;2024-03-23T07:53:35;9.60;;;2.80;;
66721;SDS011;53633;49.932;10.884;2024-03-23T07:56:02;9.05;;;2.72;;
66721;SDS011;53633;49.932;10.884;2024-03-23T07:58:28;8.73;;;3.30;;
66721;SDS011;53633;49.932;10.884;2024-03-23T08:00:54;9.40;;;3.33;;
66721;SDS011;53633;49.932;10.884;2024-03-23T08:03:21;9.10;;;3.58;;
66721;SDS011;53633;49.932;10.884;2024-03-23T08:05:48;8.52;;;2.90;;
66721;SDS011;53633;49.932;10.884;2024-03-23T08:08:19;10.82;;;3.38;;
66721;SDS011;53633;49.932;10.884;2024-03-23T08:10:48;10.07;;;4.78;;
66721;SDS011;53633;49.932;10.884;2024-03-23T08:13:15;11.85;;;4.32;;
66721;SDS011;53633;49.932;10.884;2024-03-23T08:15:42;11.52;;;4.22;;
66721;SDS011;53633;49.932;10.884;2024-03-23T08:18:08;9.45;;;3.72;;
66721;SDS011;53633;49.932;10.884;2024-03-23T08:20:34;9.20;;;3.22;;
66721;SDS011;53633;49.932;10.884;2024-03-23T08:23:01;9.60;;;3.33;;
66721;SDS011;53633;49.932;10.884;2024-03-23T08:25:27;9.68;;;3.53;;
66721;SDS011;53633;49.932;10.884;2024-03-23T08:27:55;7.95;;;3.40;;
66721;SDS011;53633;49.932;10.884;2024-03-23T08:30:21;7.97;;;2.60;;
66721;SDS011;53633;49.932;10.884;2024-03-23T08:32:47;7.47;;;2.47;;
66721;SDS011;53633;49.932;10.884;2024-03-23T08:35:13;6.85;;;2.20;;
66721;SDS011;53633;49.932;10.884;2024-03-23T08:37:39;6.72;;;1.77;;
66721;SDS011;53633;49.932;10.884;2024-03-23T08:40:08;4.63;;;1.17;;
66721;SDS011;53633;49.932;10.884;2024-03-23T08:42:37;4.70;;;1.35;;
66721;SDS011;53633;49.932;10.884;2024-03-23T08:45:04;5.20;;;0.95;;
66721;SDS011;53633;49.932;10.884;2024-03-23T08:47:32;2.67;;;0.63;;
66721;SDS011;53633;49.932;10.884;2024-03-23T08:49:59;3.60;;;0.57;;
66721;SDS011;53633;49.932;10.884;2024-03-23T08:52:25;3.38;;;0.98;;
66721;SDS011;53633;49.932;10.884;2024-03-23T08:54:51;2.13;;;0.50;;
66721;SDS011;53633;49.932;10.884;2024-03-23T08:57:18;1.30;;;0.30;;
66721;SDS011;53633;49.932;10.884;2024-03-23T08:59:44;0.98;;;0.28;;
66721;SDS011;53633;49.932;10.884;2024-03-23T09:02:10;0.90;;;0.20;;
66721;SDS011;53633;49.932;10.884;2024-03-23T09:04:36;1.10;;;0.30;;
66721;SDS011;53633;49.932;10.884;2024-03-23T09:07:02;0.70;;;0.30;;
66721;SDS011;53633;49.932;10.884;2024-03-23T09:09:28;1.23;;;0.30;;
66721;SDS011;53633;49.932;10.884;2024-03-23T09:11:55;0.83;;;0.30;;
66721;SDS011;53633;49.932;10.884;2024-03-23T09:14:23;0.82;;;0.30;;
66721;SDS011;53633;49.932;10.884;2024-03-23T09:16:49;1.10;;;0.40;;
66721;SDS011;53633;49.932;10.884;2024-03-23T09:19:16;1.45;;;0.30;;
66721;SDS011;53633;49.932;10.884;2024-03-23T09:21:42;0.85;;;0.30;;
66721;SDS011;53633;49.932;10.884;2024-03-23T09:24:09;1.23;;;0.37;;
66721;SDS011;53633;49.932;10.884;2024-03-23T09:26:35;1.10;;;0.30;;
66721;SDS011;53633;49.932;10.884;2024-03-23T09:29:01;0.88;;;0.30;;
66721;SDS011;53633;49.932;10.884;2024-03-23T09:31:28;0.77;;;0.30;;
66721;SDS011;53633;49.932;10.884;2024-03-23T09:33:54;0.80;;;0.30;;
66721;SDS011;53633;49.932;10.884;2024-03-23T09:36:20;1.40;;;0.30;;
66721;SDS011;53633;49.932;10.884;2024-03-23T09:38:46;1.10;;;0.30;;
66721;SDS011;53633;49.932;10.884;2024-03-23T09:41:11;0.80;;;0.30;;
66721;SDS011;53633;49.932;10.884;2024-03-23T09:43:40;2.00;;;0.40;;
66721;SDS011;53633;49.932;10.884;2024-03-23T09:46:08;1.40;;;0.40;;
66721;SDS011;53633;49.932;10.884;2024-03-23T09:48:36;2.58;;;0.40;;
66721;SDS011;53633;49.932;10.884;2024-03-23T09:51:02;2.13;;;0.40;;
66721;SDS011;53633;49.932;10.884;2024-03-23T09:53:30;4.78;;;0.47;;
66721;SDS011;53633;49.932;10.884;2024-03-23T09:56:12;8.63;;;0.60;;
66721;SDS011;53633;49.932;10.884;2024-03-23T09:58:44;3.37;;;0.70;;
66721;SDS011;53633;49.932;10.884;2024-03-23T10:01:11;2.42;;;0.40;;
66721;SDS011;53633;49.932;10.884;2024-03-23T10:03:45;8.38;;;0.63;;
66721;SDS011;53633;49.932;10.884;2024-03-23T10:06:12;2.47;;;0.43;;
66721;SDS011;53633;49.932;10.884;2024-03-23T10:08:39;2.60;;;0.50;;
66721;SDS011;53633;49.932;10.884;2024-03-23T10:11:14;5.87;;;0.70;;
66721;SDS011;53633;49.932;10.884;2024-03-23T10:13:46;11.38;;;1.02;;
66721;SDS011;53633;49.932;10.884;2024-03-23T10:16:23;11.55;;;1.55;;
66721;SDS011;53633;49.932;10.884;2024-03-23T10:18:53;2.50;;;0.38;;
66721;SDS011;53633;49.932;10.884;2024-03-23T10:21:19;2.55;;;0.47;;
66721;SDS011;53633;49.932;10.884;2024-03-23T10:23:55;3.37;;;0.70;;
66721;SDS011;53633;49.932;10.884;2024-03-23T10:26:55;4.22;;;0.63;;
66721;SDS011;53633;49.932;10.884;2024-03-23T10:29:49;3.88;;;0.63;;
66721;SDS011;53633;49.932;10.884;2024-03-23T10:32:17;8.30;;;0.85;;
66721;SDS011;53633;49.932;10.884;2024-03-23T10:34:48;4.40;;;0.50;;
66721;SDS011;53633;49.932;10.884;2024-03-23T10:37:17;19.83;;;2.00;;
66721;SDS011;53633;49.932;10.884;2024-03-23T10:39:46;5.22;;;0.55;;
66721;SDS011;53633;49.932;10.884;2024-03-23T10:45:14;3.08;;;0.70;;
66721;SDS011;53633;49.932;10.884;2024-03-23T10:47:42;3.50;;;0.50;;
66721;SDS011;53633;49.932;10.884;2024-03-23T10:52:59;2.78;;;0.73;;
66721;SDS011;53633;49.932;10.884;2024-03-23T10:55:30;4.93;;;0.70;;
66721;SDS011;53633;49.932;10.884;2024-03-23T10:57:58;5.28;;;0.60;;
66721;SDS011;53633;49.932;10.884;2024-03-23T11:00:34;4.40;;;0.88;;
66721;SDS011;53633;49.932;10.884;2024-03-23T11:03:12;6.20;;;0.90;;
66721;SDS011;53633;49.932;10.884;2024-03-23T11:16:15;7.88;;;1.25;;
66721;SDS011;53633;49.932;10.884;2024-03-23T11:19:39;5.60;;;1.00;;
66721;SDS011;53633;49.932;10.884;2024-03-23T11:29:29;5.60;;;1.65;;
66721;SDS011;53633;49.932;10.884;2024-03-23T11:38:10;6.38;;;1.33;;
66721;SDS011;53633;49.932;10.884;2024-03-23T11:40:39;6.85;;;1.05;;
66721;SDS011;53633;49.932;10.884;2024-03-23T11:43:07;6.88;;;1.02;;
66721;SDS011;53633;49.932;10.884;2024-03-23T11:45:38;6.95;;;1.10;;
66721;SDS011;53633;49.932;10.884;2024-03-23T11:48:06;6.63;;;1.20;;
66721;SDS011;53633;49.932;10.884;2024-03-23T11:50:36;5.47;;;1.17;;
66721;SDS011;53633;49.932;10.884;2024-03-23T11:53:08;5.53;;;0.90;;
66721;SDS011;53633;49.932;10.884;2024-03-23T11:55:45;4.72;;;1.00;;
66721;SDS011;53633;49.932;10.884;2024-03-23T11:58:31;6.55;;;1.05;;
66721;SDS011;53633;49.932;10.884;2024-03-23T12:07:24;5.35;;;1.30;;
66721;SDS011;53633;49.932;10.884;2024-03-23T12:10:26;6.72;;;1.52;;
66721;SDS011;53633;49.932;10.884;2024-03-23T12:13:09;10.68;;;1.52;;
66721;SDS011;53633;49.932;10.884;2024-03-23T12:15:44;9.87;;;2.20;;
66721;SDS011;53633;49.932;10.884;2024-03-23T12:18:26;13.25;;;5.38;;
66721;SDS011;53633;49.932;10.884;2024-03-23T12:24:09;4.75;;;0.82;;
66721;SDS011;53633;49.932;10.884;2024-03-23T12:26:37;7.00;;;1.08;;
66721;SDS011;53633;49.932;10.884;2024-03-23T12:29:04;5.33;;;0.70;;
66721;SDS011;53633;49.932;10.884;2024-03-23T12:31:31;3.58;;;0.90;;
66721;SDS011;53633;49.932;10.884;2024-03-23T12:34:00;4.70;;;0.63;;
66721;SDS011;53633;49.932;10.884;2024-03-23T12:36:41;3.88;;;0.90;;
66721;SDS011;53633;49.932;10.884;2024-03-23T12:39:13;5.85;;;1.13;;
66721;SDS011;53633;49.932;10.884;2024-03-23T12:41:41;4.60;;;1.20;;
66721;SDS011;53633;49.932;10.884;2024-03-23T12:44:18;5.85;;;1.00;;
66721;SDS011;53633;49.932;10.884;2024-03-23T12:46:44;4.47;;;0.70;;
66721;SDS011;53633;49.932;10.884;2024-03-23T12:49:12;4.05;;;0.70;;
66721;SDS011;53633;49.932;10.884;2024-03-23T12:51:46;4.95;;;1.13;;
66721;SDS011;53633;49.932;10.884;2024-03-23T12:54:18;6.50;;;0.73;;
66721;SDS011;53633;49.932;10.884;2024-03-23T12:56:46;5.20;;;1.00;;
66721;SDS011;53633;49.932;10.884;2024-03-23T12:59:15;7.20;;;1.20;;
66721;SDS011;53633;49.932;10.884;2024-03-23T13:01:41;6.22;;;1.20;;
66721;SDS011;53633;49.932;10.884;2024-03-23T13:04:10;7.47;;;1.50;;
66721;SDS011;53633;49.932;10.884;2024-03-23T13:06:36;4.72;;;0.90;;
66721;SDS011;53633;49.932;10.884;2024-03-23T13:12:19;7.13;;;1.23;;
66721;SDS011;53633;49.932;10.884;2024-03-23T13:14:46;7.28;;;1.30;;
66721;SDS011;53633;49.932;10.884;2024-03-23T13:17:18;7.45;;;1.40;;
66721;SDS011;53633;49.932;10.884;2024-03-23T13:19:44;6.25;;;1.20;;
66721;SDS011;53633;49.932;10.884;2024-03-23T13:22:10;6.45;;;1.60;;
66721;SDS011;53633;49.932;10.884;2024-03-23T13:24:42;5.32;;;1.10;;
66721;SDS011;53633;49.932;10.884;2024-03-23T13:27:08;5.90;;;1.45;;
66721;SDS011;53633;49.932;10.884;2024-03-23T13:29:35;5.70;;;1.20;;
66721;SDS011;53633;49.932;10.884;2024-03-23T13:32:01;4.10;;;1.08;;
66721;SDS011;53633;49.932;10.884;2024-03-23T13:34:29;6.25;;;1.20;;
66721;SDS011;53633;49.932;10.884;2024-03-23T13:36:56;6.15;;;1.70;;
66721;SDS011;53633;49.932;10.884;2024-03-23T13:39:26;6.85;;;1.30;;
66721;SDS011;53633;49.932;10.884;2024-03-23T13:41:57;6.70;;;1.33;;
66721;SDS011;53633;49.932;10.884;2024-03-23T13:44:25;6.20;;;0.88;;
66721;SDS011;53633;49.932;10.884;2024-03-23T13:46:54;5.35;;;0.85;;
66721;SDS011;53633;49.932;10.884;2024-03-23T13:49:25;4.72;;;0.80;;
66721;SDS011;53633;49.932;10.884;2024-03-23T13:51:53;5.03;;;0.65;;
66721;SDS011;53633;49.932;10.884;2024-03-23T13:54:21;4.63;;;0.63;;
66721;SDS011;53633;49.932;10.884;2024-03-23T13:56:48;5.80;;;0.77;;
66721;SDS011;53633;49.932;10.884;2024-03-23T13:59:18;5.28;;;0.65;;
66721;SDS011;53633;49.932;10.884;2024-03-23T14:01:44;5.90;;;1.10;;
66721;SDS011;53633;49.932;10.884;2024-03-23T14:04:13;5.03;;;0.98;;
66721;SDS011;53633;49.932;10.884;2024-03-23T14:06:43;7.53;;;1.20;;
66721;SDS011;53633;49.932;10.884;2024-03-23T14:09:09;6.20;;;1.35;;
66721;SDS011;53633;49.932;10.884;2024-03-23T14:11:36;5.35;;;1.17;;
66721;SDS011;53633;49.932;10.884;2024-03-23T14:14:08;5.45;;;1.13;;
66721;SDS011;53633;49.932;10.884;2024-03-23T14:16:44;5.45;;;1.30;;
66721;SDS011;53633;49.932;10.884;2024-03-23T14:19:11;7.53;;;1.13;;
66721;SDS011;53633;49.932;10.884;2024-03-23T14:21:37;4.85;;;1.10;;
66721;SDS011;53633;49.932;10.884;2024-03-23T14:24:04;4.28;;;1.15;;
66721;SDS011;53633;49.932;10.884;2024-03-23T14:26:33;5.40;;;1.00;;
66721;SDS011;53633;49.932;10.884;2024-03-23T14:29:01;8.95;;;1.10;;
66721;SDS011;53633;49.932;10.884;2024-03-23T14:31:27;6.30;;;0.88;;
66721;SDS011;53633;49.932;10.884;2024-03-23T14:33:56;7.90;;;1.00;;
66721;SDS011;53633;49.932;10.884;2024-03-23T14:36:22;5.43;;;1.08;;
66721;SDS011;53633;49.932;10.884;2024-03-23T14:38:50;6.78;;;1.13;;
66721;SDS011;53633;49.932;10.884;2024-03-23T14:41:18;5.22;;;1.20;;
66721;SDS011;53633;49.932;10.884;2024-03-23T14:43:46;5.00;;;1.27;;
66721;SDS011;53633;49.932;10.884;2024-03-23T14:46:12;7.40;;;1.30;;
66721;SDS011;53633;49.932;10.884;2024-03-23T14:48:39;6.10;;;1.13;;
66721;SDS011;53633;49.932;10.884;2024-03-23T14:51:08;6.35;;;0.77;;
66721;SDS011;53633;49.932;10.884;2024-03-23T14:53:45;5.15;;;1.20;;
66721;SDS011;53633;49.932;10.884;2024-03-23T14:56:14;4.90;;;1.23;;
66721;SDS011;53633;49.932;10.884;2024-03-23T14:58:41;5.03;;;1.00;;
66721;SDS011;53633;49.932;10.884;2024-03-23T15:01:08;4.95;;;1.20;;
66721;SDS011;53633;49.932;10.884;2024-03-23T15:03:35;5.57;;;1.20;;
66721;SDS011;53633;49.932;10.884;2024-03-23T15:06:04;5.18;;;1.05;;
66721;SDS011;53633;49.932;10.884;2024-03-23T15:08:35;5.35;;;1.10;;
66721;SDS011;53633;49.932;10.884;2024-03-23T15:11:03;4.93;;;1.30;;
66721;SDS011;53633;49.932;10.884;2024-03-23T15:13:34;6.28;;;1.35;;
66721;SDS011;53633;49.932;10.884;2024-03-23T15:16:00;6.55;;;1.10;;
66721;SDS011;53633;49.932;10.884;2024-03-23T15:18:30;6.00;;;1.40;;
66721;SDS011;53633;49.932;10.884;2024-03-23T15:20:58;4.53;;;1.00;;
66721;SDS011;53633;49.932;10.884;2024-03-23T15:26:26;4.63;;;1.15;;
66721;SDS011;53633;49.932;10.884;2024-03-23T15:29:03;8.88;;;1.25;;
66721;SDS011;53633;49.932;10.884;2024-03-23T15:31:34;6.95;;;1.30;;
66721;SDS011;53633;49.932;10.884;2024-03-23T15:34:19;5.15;;;1.40;;
66721;SDS011;53633;49.932;10.884;2024-03-23T15:36:54;4.00;;;0.98;;
66721;SDS011;53633;49.932;10.884;2024-03-23T15:39:32;6.63;;;1.10;;
66721;SDS011;53633;49.932;10.884;2024-03-23T15:42:14;6.75;;;1.50;;
66721;SDS011;53633;49.932;10.884;2024-03-23T15:44:46;7.55;;;0.90;;
66721;SDS011;53633;49.932;10.884;2024-03-23T15:47:14;7.80;;;1.27;;
66721;SDS011;53633;49.932;10.884;2024-03-23T15:52:42;6.38;;;0.90;;
66721;SDS011;53633;49.932;10.884;2024-03-23T15:55:18;4.00;;;0.70;;
66721;SDS011;53633;49.932;10.884;2024-03-23T15:57:48;3.63;;;0.52;;
66721;SDS011;53633;49.932;10.884;2024-03-23T16:00:15;1.95;;;0.50;;
66721;SDS011;53633;49.932;10.884;2024-03-23T16:02:42;3.35;;;0.57;;
66721;SDS011;53633;49.932;10.884;2024-03-23T16:05:13;3.03;;;0.60;;
66721;SDS011;53633;49.932;10.884;2024-03-23T16:07:44;1.55;;;0.30;;
66721;SDS011;53633;49.932;10.884;2024-03-23T16:19:07;1.38;;;0.30;;
66721;SDS011;53633;49.932;10.884;2024-03-23T16:21:38;2.53;;;0.40;;
66721;SDS011;53633;49.932;10.884;2024-03-23T16:27:30;1.27;;;0.30;;